»·PEaware :: SWA1695 KPHX-KLAS

SWA1695 :: KPHX-KLAS

FLIGHT INFORMATION

Flight Status: Arrived
Operator:
Southwest Airlines
More flights by this operator :: More flights under this callsign
Pilot: Zach J. (11240)
Aircraft: BOEING 737-700
(B737)
More flights by this aircraft type
Origin: KPHX Phoenix Sky Harbor Intl
United States
Destination: KLAS McCarran Intl
United States
More flights between these airports :: More routes between these airports
Route: +MAYSA5 SISIE IGM TYSSN5
File this flight plan on PilotEdge
Remarks: SEL / KSEJ
Altitude:
(Current/Filed)
28,000ft
Speed:
(Current/Filed)
446kts
Departed: 28-Sep-17 06:50 PM
Arrived: 28-Sep-17 07:36 PM
Distance/Time
Traveled:
222nm/0:45
Distance/Time
To Go:
Arrived

Flight Plot

Page will automatically refresh every two minutes.

Flight plan parsing failed; only flown route is shown


Map Options




Map Legend


Flown Route
Filed Route
Departure Airport
Arrival Airport
Navaid (VOR, NDB)
Fix

Horizontal Profiles

Position Reports

Time Latitude Longitude Heading Altitude Ground
Speed
28-Sep-17 18:17 33.434292 -111.999884 93 1143ft 0kts
28-Sep-17 18:18 33.434292 -111.999884 93 1143ft 0kts
28-Sep-17 18:19 33.434292 -111.999884 93 1143ft 0kts
28-Sep-17 18:20 33.434292 -111.999884 93 1143ft 0kts
28-Sep-17 18:21 33.434292 -111.999884 93 1143ft 0kts
28-Sep-17 18:22 33.434292 -111.999884 93 1143ft 0kts
28-Sep-17 18:23 33.434292 -111.999884 93 1143ft 0kts
28-Sep-17 18:24 33.434292 -111.999884 93 1143ft 0kts
28-Sep-17 18:25 33.434292 -111.999884 93 1143ft 0kts
28-Sep-17 18:26 33.434292 -111.999884 93 1143ft 0kts
28-Sep-17 18:27 33.434292 -111.999884 93 1143ft 0kts
28-Sep-17 18:28 33.434292 -111.999884 93 1143ft 0kts
28-Sep-17 18:29 33.434292 -111.999884 93 1143ft 0kts
28-Sep-17 18:30 33.434292 -111.999884 93 1143ft 0kts
28-Sep-17 18:31 33.434292 -111.999884 93 1143ft 0kts
28-Sep-17 18:32 33.434292 -111.999884 93 1143ft 0kts
28-Sep-17 18:33 33.434292 -111.999884 93 1143ft 0kts
28-Sep-17 18:34 33.434292 -111.999884 93 1143ft 0kts
28-Sep-17 18:35 33.434292 -111.999884 93 1143ft 0kts
28-Sep-17 18:36 33.434292 -111.999884 93 1143ft 0kts
28-Sep-17 18:37 33.434292 -111.999884 93 1143ft 0kts
28-Sep-17 18:38 33.434292 -111.999884 93 1143ft 0kts
28-Sep-17 18:39 33.434292 -111.999884 93 1143ft 0kts
28-Sep-17 18:40 33.434292 -111.999884 93 1143ft 0kts
28-Sep-17 18:41 33.434292 -111.999884 93 1143ft 0kts
28-Sep-17 18:42 33.434292 -111.999884 93 1143ft 0kts
28-Sep-17 18:43 33.434292 -111.999884 93 1143ft 0kts
28-Sep-17 18:44 33.434292 -111.999884 93 1143ft 0kts
28-Sep-17 18:45 33.434292 -111.999884 93 1143ft 0kts
28-Sep-17 18:46 33.434429 -112.000422 140 1143ft 2kts
28-Sep-17 18:47 33.434668 -112.000502 180 1143ft 0kts
28-Sep-17 18:48 33.434668 -112.000502 180 1143ft 0kts
28-Sep-17 18:49 33.434650 -112.000502 179 1143ft 2kts
28-Sep-17 18:50 33.433322 -112.000496 182 1143ft 0kts
28-Sep-17 18:51 33.432129 -111.997830 90 1143ft 16kts
28-Sep-17 18:52 33.432131 -111.993880 101 1143ft 6kts
28-Sep-17 18:53 33.431887 -111.993610 173 1143ft 0kts
28-Sep-17 18:54 33.431012 -111.999106 269 1143ft 86kts
28-Sep-17 18:55 33.431617 -112.050010 270 3070ft 180kts
28-Sep-17 18:56 33.465592 -112.107432 317 5527ft 256kts
28-Sep-17 18:57 33.514397 -112.157694 319 8319ft 290kts
28-Sep-17 18:58 33.592137 -112.194438 345 11568ft 330kts
28-Sep-17 18:59 33.686587 -112.224019 344 14842ft 363kts
28-Sep-17 19:00 33.803477 -112.261468 342 19042ft 384kts
28-Sep-17 19:01 33.909220 -112.295796 341 22272ft 401kts
28-Sep-17 19:02 33.999925 -112.326002 336 24887ft 404kts
28-Sep-17 19:03 34.090719 -112.397434 315 27830ft 390kts
28-Sep-17 19:04 34.173588 -112.481150 315 28005ft 384kts
28-Sep-17 19:05 34.255435 -112.563923 315 28037ft 384kts
28-Sep-17 19:06 34.337286 -112.646418 315 28066ft 383kts
28-Sep-17 19:07 34.419129 -112.729200 315 28093ft 382kts
28-Sep-17 19:08 34.500374 -112.811942 315 28103ft 381kts
28-Sep-17 19:09 34.581130 -112.894974 314 28103ft 380kts
28-Sep-17 19:10 34.659738 -112.981027 314 28089ft 379kts
28-Sep-17 19:11 34.737923 -113.066769 314 28123ft 378kts
28-Sep-17 19:12 34.816460 -113.152468 314 28116ft 378kts
28-Sep-17 19:13 34.894354 -113.238214 314 28107ft 377kts
28-Sep-17 19:14 34.971324 -113.324769 309 28098ft 375kts
28-Sep-17 19:15 35.027771 -113.430762 297 28090ft 371kts
28-Sep-17 19:16 35.078656 -113.540289 297 28085ft 371kts
28-Sep-17 19:17 35.129676 -113.649728 297 28083ft 371kts
28-Sep-17 19:18 35.180344 -113.759335 297 27119ft 368kts
28-Sep-17 19:19 35.229732 -113.866932 298 25114ft 358kts
28-Sep-17 19:20 35.289887 -113.960747 318 23180ft 351kts
28-Sep-17 19:21 35.366823 -114.032750 321 21280ft 342kts
28-Sep-17 19:22 35.441700 -114.102549 321 19395ft 334kts
28-Sep-17 19:23 35.516297 -114.171829 322 17534ft 335kts
28-Sep-17 19:24 35.589512 -114.240092 322 15723ft 327kts
28-Sep-17 19:25 35.661173 -114.307240 322 13968ft 321kts
28-Sep-17 19:26 35.731517 -114.372922 325 12254ft 310kts
28-Sep-17 19:27 35.805996 -114.413428 339 11854ft 273kts
28-Sep-17 19:28 35.879869 -114.447721 339 10802ft 291kts
28-Sep-17 19:29 35.954310 -114.482572 339 9878ft 278kts
28-Sep-17 19:30 36.024530 -114.519544 318 8744ft 271kts
28-Sep-17 19:31 36.051388 -114.602521 284 7996ft 250kts
28-Sep-17 19:32 36.066232 -114.686984 283 8006ft 253kts
28-Sep-17 19:33 36.073998 -114.772800 271 7383ft 240kts
28-Sep-17 19:34 36.073911 -114.846586 271 6306ft 198kts
28-Sep-17 19:35 36.073848 -114.913319 271 5340ft 191kts
28-Sep-17 19:36 36.073800 -114.969026 271 4513ft 144kts
28-Sep-17 19:37 36.073762 -115.018071 271 3817ft 141kts
28-Sep-17 19:38 36.073717 -115.066414 271 3104ft 140kts
28-Sep-17 19:39 36.073572 -115.114241 270 2479ft 138kts
28-Sep-17 19:40 36.073924 -115.148613 287 2189ft 25kts
28-Sep-17 19:41 36.074618 -115.150314 305 2189ft 4kts
28-Sep-17 19:42 36.078090 -115.152530 56 2189ft 10kts
28-Sep-17 19:43 36.081322 -115.150802 44 2189ft 14kts
28-Sep-17 19:44 36.080076 -115.148699 153 2189ft 15kts
28-Sep-17 19:45 36.079543 -115.146738 26 2189ft 0kts
28-Sep-17 19:46 36.079543 -115.146738 26 2189ft 0kts
28-Sep-17 19:47 36.079543 -115.146738 26 2189ft 0kts
28-Sep-17 19:48 36.079543 -115.146738 26 2189ft 0kts
28-Sep-17 19:49 36.079543 -115.146738 26 2189ft 0kts
28-Sep-17 19:50 36.079543 -115.146738 26 2189ft 0kts
28-Sep-17 19:51 36.079543 -115.146738 26 2189ft 0kts

Navigation Log

Ident Type
Flight plan parsing failed, navigation log unavailable